Terminal Aerodrome Forecast
Issued by NWS Blacksburg, VA

Home | Current Version | Previous Version | Text Only | Print | Product List | Glossary On
Versions: 1 2 3 4 5 6 7 8 9 10 11 12 13 14 15 16 17 18 19 20 21 22 23 24 25 26 27 28 29 30 31 32 33 34 35 36 37 38 39 40 41 42 43 44 45 46 47 48 49 50
000
FTUS41 KRNK 191314 AAC
TAFDAN
TAF AMD
KDAN 191314Z 1913/2012 08004KT P6SM VCSH SCT004 OVC035
     FM191500 07006KT 4SM -RA BR OVC025
     FM192000 12010KT 2SM RA BR OVC012
     FM200800 20007KT 4SM BR OVC007 WS020/18040KT=

USA.gov is the U.S. government's official web portal to all federal, state and local government web resources and services.